createdAt,value
2022-11-29T00:11:11.072Z,12.4
2022-11-29T00:26:20.365Z,12.6
2022-11-29T00:41:29.398Z,12.6
2022-11-29T00:56:38.802Z,12.4
2022-11-29T01:11:48.107Z,12.5
2022-11-29T01:26:56.489Z,12.8
2022-11-29T01:42:08.667Z,12.9
2022-11-29T01:57:18.051Z,12.7
2022-11-29T02:12:27.739Z,12.2
2022-11-29T02:27:37.496Z,11.8
2022-11-29T02:42:56.373Z,12.4
2022-11-29T02:58:06.543Z,12.1
2022-11-29T03:13:18.839Z,12.7
2022-11-29T03:28:28.252Z,11.5
2022-11-29T03:43:38.055Z,12.4
2022-11-29T03:58:49.854Z,12.9
2022-11-29T04:13:59.551Z,12.7
2022-11-29T04:29:09.138Z,13.1
2022-11-29T04:44:18.505Z,12.8
2022-11-29T04:59:27.970Z,12.8
2022-11-29T05:14:37.757Z,13
2022-11-29T05:29:47.204Z,14
2022-11-29T05:44:56.742Z,13.6
2022-11-29T06:00:06.342Z,14.3
2022-11-29T06:15:15.812Z,13.2
2022-11-29T06:30:25.160Z,13.1
2022-11-29T06:45:35.046Z,14.6
2022-11-29T07:00:44.389Z,15.5
2022-11-29T07:15:54.212Z,14.1
2022-11-29T07:31:03.988Z,15.4
2022-11-29T07:46:14.690Z,14.7
2022-11-29T08:01:25.545Z,17.4
2022-11-29T08:16:35.819Z,15.7
2022-11-29T08:31:45.508Z,16.7
2022-11-29T08:46:55.287Z,17.3
2022-11-29T09:02:05.367Z,17.6
2022-11-29T09:17:15.322Z,16.9
2022-11-29T09:32:24.751Z,18.4
2022-11-29T09:47:34.395Z,17.5
2022-11-29T10:02:43.599Z,19
2022-11-29T10:17:59.094Z,20.5
2022-11-29T10:33:11.223Z,19.3
2022-11-29T10:48:21.147Z,19.9
2022-11-29T11:03:30.750Z,20.4
2022-11-29T11:18:40.222Z,22
2022-11-29T11:33:49.674Z,22.1
2022-11-29T11:48:58.741Z,22.9
2022-11-29T12:04:11.213Z,22.8
2022-11-29T12:19:23.285Z,22.5
2022-11-29T12:34:33.274Z,24.5
2022-11-29T12:49:42.896Z,25.5
2022-11-29T13:05:00.183Z,23.9
2022-11-29T13:20:10.687Z,24.6
2022-11-29T13:35:21.812Z,23.3
2022-11-29T13:50:31.442Z,24.8
2022-11-29T14:05:41.388Z,24.7
2022-11-29T14:20:51.215Z,24
2022-11-29T14:36:01.039Z,25.3
2022-11-29T14:51:11.414Z,26.9
2022-11-29T15:06:21.154Z,31.1
2022-11-29T15:21:30.609Z,27.6
2022-11-29T15:36:40.103Z,28.6
2022-11-29T15:51:50.156Z,29.4
2022-11-29T16:06:59.507Z,28.5
2022-11-29T16:22:09.381Z,29.6
2022-11-29T16:37:18.814Z,32.2
2022-11-29T16:52:28.195Z,29
2022-11-29T17:07:38.006Z,30.8
2022-11-29T17:22:47.990Z,31.2
2022-11-29T17:37:57.275Z,32.3
2022-11-29T17:53:07.380Z,33.9
2022-11-29T18:08:16.677Z,37.5
2022-11-29T18:23:25.576Z,38.3
2022-11-29T18:38:34.714Z,37.8
2022-11-29T18:53:44.439Z,39.4
2022-11-29T19:08:54.188Z,37.3
2022-11-29T19:24:03.539Z,37.4
2022-11-29T19:39:15.131Z,40.1
2022-11-29T19:54:25.460Z,38.5
2022-11-29T20:09:34.991Z,37.6
2022-11-29T20:24:45.946Z,37.3
2022-11-29T20:39:55.340Z,36.5
2022-11-29T20:55:05.114Z,37.6
2022-11-29T21:10:20.628Z,36.3
2022-11-29T21:25:30.544Z,36.7
2022-11-29T21:40:39.853Z,37.2
2022-11-29T21:55:49.264Z,37
2022-11-29T22:10:58.681Z,38.2
2022-11-29T22:26:08.656Z,37.9
2022-11-29T22:41:56.275Z,36.5
2022-11-29T22:57:08.277Z,36.4
2022-11-29T23:12:17.798Z,37.2
2022-11-29T23:27:27.401Z,35.6
2022-11-29T23:42:37.185Z,32.8
2022-11-29T23:57:46.682Z,33.9
